sensor_id;sensor_type;location;lat;lon;timestamp;temperature;humidity
36322;DHT22;23564;48.290;11.460;2024-03-02T00:02:47;6.50;99.70
36322;DHT22;23564;48.290;11.460;2024-03-02T00:05:18;6.50;99.60
36322;DHT22;23564;48.290;11.460;2024-03-02T00:07:45;6.50;99.40
36322;DHT22;23564;48.290;11.460;2024-03-02T00:10:16;6.50;99.20
36322;DHT22;23564;48.290;11.460;2024-03-02T00:12:42;6.50;99.20
36322;DHT22;23564;48.290;11.460;2024-03-02T00:15:36;6.50;99.20
36322;DHT22;23564;48.290;11.460;2024-03-02T00:18:04;6.50;99.20
36322;DHT22;23564;48.290;11.460;2024-03-02T00:20:31;6.50;99.10
36322;DHT22;23564;48.290;11.460;2024-03-02T00:23:05;6.40;99.30
36322;DHT22;23564;48.290;11.460;2024-03-02T00:25:44;6.40;99.10
36322;DHT22;23564;48.290;11.460;2024-03-02T00:28:18;6.40;99.20
36322;DHT22;23564;48.290;11.460;2024-03-02T00:31:03;6.30;99.40
36322;DHT22;23564;48.290;11.460;2024-03-02T00:33:36;6.30;99.70
36322;DHT22;23564;48.290;11.460;2024-03-02T00:36:03;6.30;99.50
36322;DHT22;23564;48.290;11.460;2024-03-02T00:38:30;6.30;99.60
36322;DHT22;23564;48.290;11.460;2024-03-02T00:41:04;6.20;99.60
36322;DHT22;23564;48.290;11.460;2024-03-02T00:43:41;6.20;99.70
36322;DHT22;23564;48.290;11.460;2024-03-02T00:46:07;6.20;99.70
36322;DHT22;23564;48.290;11.460;2024-03-02T00:48:33;6.20;99.80
36322;DHT22;23564;48.290;11.460;2024-03-02T00:51:05;6.20;99.90
36322;DHT22;23564;48.290;11.460;2024-03-02T00:53:31;6.20;99.80
36322;DHT22;23564;48.290;11.460;2024-03-02T00:56:01;6.20;99.70
36322;DHT22;23564;48.290;11.460;2024-03-02T00:58:27;6.20;99.90
36322;DHT22;23564;48.290;11.460;2024-03-02T01:00:52;6.20;99.90
36322;DHT22;23564;48.290;11.460;2024-03-02T01:03:18;6.20;99.90
36322;DHT22;23564;48.290;11.460;2024-03-02T01:05:44;6.20;99.90
36322;DHT22;23564;48.290;11.460;2024-03-02T01:08:10;6.20;99.90
36322;DHT22;23564;48.290;11.460;2024-03-02T01:10:36;6.30;99.90
36322;DHT22;23564;48.290;11.460;2024-03-02T01:13:02;6.30;99.90
36322;DHT22;23564;48.290;11.460;2024-03-02T01:15:27;6.30;99.90
36322;DHT22;23564;48.290;11.460;2024-03-02T01:17:53;6.30;99.60
36322;DHT22;23564;48.290;11.460;2024-03-02T01:20:19;6.30;99.40
36322;DHT22;23564;48.290;11.460;2024-03-02T01:22:44;6.30;99.30
36322;DHT22;23564;48.290;11.460;2024-03-02T01:25:10;6.30;99.20
36322;DHT22;23564;48.290;11.460;2024-03-02T01:27:35;6.20;99.40
36322;DHT22;23564;48.290;11.460;2024-03-02T01:30:01;6.20;99.60
36322;DHT22;23564;48.290;11.460;2024-03-02T01:32:26;6.20;99.70
36322;DHT22;23564;48.290;11.460;2024-03-02T01:34:52;6.30;99.60
36322;DHT22;23564;48.290;11.460;2024-03-02T01:37:17;6.30;99.80
36322;DHT22;23564;48.290;11.460;2024-03-02T01:39:43;6.30;99.40
36322;DHT22;23564;48.290;11.460;2024-03-02T01:42:09;6.20;99.20
36322;DHT22;23564;48.290;11.460;2024-03-02T01:44:36;6.20;99.40
36322;DHT22;23564;48.290;11.460;2024-03-02T01:47:01;6.20;99.40
36322;DHT22;23564;48.290;11.460;2024-03-02T01:49:27;6.20;99.40
36322;DHT22;23564;48.290;11.460;2024-03-02T01:51:53;6.20;99.70
36322;DHT22;23564;48.290;11.460;2024-03-02T01:54:18;6.20;99.90
36322;DHT22;23564;48.290;11.460;2024-03-02T01:56:44;6.20;99.90
36322;DHT22;23564;48.290;11.460;2024-03-02T01:59:10;6.20;99.90
36322;DHT22;23564;48.290;11.460;2024-03-02T02:01:36;6.20;99.90
36322;DHT22;23564;48.290;11.460;2024-03-02T02:04:02;6.20;99.90
36322;DHT22;23564;48.290;11.460;2024-03-02T02:06:27;6.20;99.90
36322;DHT22;23564;48.290;11.460;2024-03-02T02:08:53;6.20;99.90
36322;DHT22;23564;48.290;11.460;2024-03-02T02:11:19;6.20;99.90
36322;DHT22;23564;48.290;11.460;2024-03-02T02:13:44;6.10;99.60
36322;DHT22;23564;48.290;11.460;2024-03-02T02:16:10;6.10;99.90
36322;DHT22;23564;48.290;11.460;2024-03-02T02:18:36;6.10;99.90
36322;DHT22;23564;48.290;11.460;2024-03-02T02:21:02;6.10;99.90
36322;DHT22;23564;48.290;11.460;2024-03-02T02:23:27;6.10;99.90
36322;DHT22;23564;48.290;11.460;2024-03-02T02:25:53;6.00;99.90
36322;DHT22;23564;48.290;11.460;2024-03-02T02:28:19;6.00;99.90
36322;DHT22;23564;48.290;11.460;2024-03-02T02:30:44;6.10;99.90
36322;DHT22;23564;48.290;11.460;2024-03-02T02:33:10;6.20;99.90
36322;DHT22;23564;48.290;11.460;2024-03-02T02:35:35;6.20;99.90
36322;DHT22;23564;48.290;11.460;2024-03-02T02:38:02;6.20;99.90
36322;DHT22;23564;48.290;11.460;2024-03-02T02:40:28;6.20;99.80
36322;DHT22;23564;48.290;11.460;2024-03-02T02:42:59;6.20;99.50
36322;DHT22;23564;48.290;11.460;2024-03-02T02:45:25;6.20;99.30
36322;DHT22;23564;48.290;11.460;2024-03-02T02:47:50;6.20;99.30
36322;DHT22;23564;48.290;11.460;2024-03-02T02:50:16;6.20;99.10
36322;DHT22;23564;48.290;11.460;2024-03-02T02:52:42;6.20;98.90
36322;DHT22;23564;48.290;11.460;2024-03-02T02:55:10;6.10;99.60
36322;DHT22;23564;48.290;11.460;2024-03-02T02:57:36;6.20;99.80
36322;DHT22;23564;48.290;11.460;2024-03-02T03:00:14;6.20;99.70
36322;DHT22;23564;48.290;11.460;2024-03-02T03:02:42;6.10;99.60
36322;DHT22;23564;48.290;11.460;2024-03-02T03:05:09;6.10;99.80
36322;DHT22;23564;48.290;11.460;2024-03-02T03:07:35;6.10;99.60
36322;DHT22;23564;48.290;11.460;2024-03-02T03:10:02;6.10;99.50
36322;DHT22;23564;48.290;11.460;2024-03-02T03:12:28;6.10;99.70
36322;DHT22;23564;48.290;11.460;2024-03-02T03:14:54;6.10;99.70
36322;DHT22;23564;48.290;11.460;2024-03-02T03:17:21;6.10;99.70
36322;DHT22;23564;48.290;11.460;2024-03-02T03:19:47;6.10;99.60
36322;DHT22;23564;48.290;11.460;2024-03-02T03:22:13;6.10;99.70
36322;DHT22;23564;48.290;11.460;2024-03-02T03:24:38;6.10;99.80
36322;DHT22;23564;48.290;11.460;2024-03-02T03:27:04;6.10;99.90
36322;DHT22;23564;48.290;11.460;2024-03-02T03:29:30;6.10;99.90
36322;DHT22;23564;48.290;11.460;2024-03-02T03:31:55;6.10;99.90
36322;DHT22;23564;48.290;11.460;2024-03-02T03:34:21;6.10;99.90
36322;DHT22;23564;48.290;11.460;2024-03-02T03:36:46;6.20;99.90
36322;DHT22;23564;48.290;11.460;2024-03-02T03:39:12;6.20;99.90
36322;DHT22;23564;48.290;11.460;2024-03-02T03:41:37;6.20;99.70
36322;DHT22;23564;48.290;11.460;2024-03-02T03:44:03;6.20;99.40
36322;DHT22;23564;48.290;11.460;2024-03-02T03:46:29;6.20;99.30
36322;DHT22;23564;48.290;11.460;2024-03-02T03:48:54;6.20;99.00
36322;DHT22;23564;48.290;11.460;2024-03-02T03:51:21;6.20;98.90
36322;DHT22;23564;48.290;11.460;2024-03-02T03:53:48;6.10;98.40
36322;DHT22;23564;48.290;11.460;2024-03-02T03:56:14;6.10;98.90
36322;DHT22;23564;48.290;11.460;2024-03-02T03:58:39;6.20;99.10
36322;DHT22;23564;48.290;11.460;2024-03-02T04:01:05;6.20;98.90
36322;DHT22;23564;48.290;11.460;2024-03-02T04:03:30;6.10;98.40
36322;DHT22;23564;48.290;11.460;2024-03-02T04:05:56;6.10;99.10
36322;DHT22;23564;48.290;11.460;2024-03-02T04:08:22;6.00;99.90
36322;DHT22;23564;48.290;11.460;2024-03-02T04:10:47;6.00;99.90
36322;DHT22;23564;48.290;11.460;2024-03-02T04:13:13;6.00;99.90
36322;DHT22;23564;48.290;11.460;2024-03-02T04:15:39;6.10;99.90
36322;DHT22;23564;48.290;11.460;2024-03-02T04:18:06;6.10;99.90
36322;DHT22;23564;48.290;11.460;2024-03-02T04:20:31;6.00;99.90
36322;DHT22;23564;48.290;11.460;2024-03-02T04:22:57;6.10;99.90
36322;DHT22;23564;48.290;11.460;2024-03-02T04:25:22;6.10;99.90
36322;DHT22;23564;48.290;11.460;2024-03-02T04:27:48;6.20;99.90
36322;DHT22;23564;48.290;11.460;2024-03-02T04:30:14;6.20;99.90
36322;DHT22;23564;48.290;11.460;2024-03-02T04:32:39;6.20;99.70
36322;DHT22;23564;48.290;11.460;2024-03-02T04:35:05;6.20;99.20
36322;DHT22;23564;48.290;11.460;2024-03-02T04:37:34;6.20;98.80
36322;DHT22;23564;48.290;11.460;2024-03-02T04:40:00;6.10;98.50
36322;DHT22;23564;48.290;11.460;2024-03-02T04:42:25;6.10;98.60
36322;DHT22;23564;48.290;11.460;2024-03-02T04:44:51;6.10;98.90
36322;DHT22;23564;48.290;11.460;2024-03-02T04:47:16;6.10;99.30
36322;DHT22;23564;48.290;11.460;2024-03-02T04:49:42;6.10;98.80
36322;DHT22;23564;48.290;11.460;2024-03-02T04:52:08;6.10;99.10
36322;DHT22;23564;48.290;11.460;2024-03-02T04:54:34;6.10;99.00
36322;DHT22;23564;48.290;11.460;2024-03-02T04:57:19;6.10;98.70
36322;DHT22;23564;48.290;11.460;2024-03-02T04:59:45;6.00;98.20
36322;DHT22;23564;48.290;11.460;2024-03-02T05:02:10;6.00;98.80
36322;DHT22;23564;48.290;11.460;2024-03-02T05:04:36;6.00;99.20
36322;DHT22;23564;48.290;11.460;2024-03-02T05:07:01;6.00;99.50
36322;DHT22;23564;48.290;11.460;2024-03-02T05:09:27;6.00;99.90
36322;DHT22;23564;48.290;11.460;2024-03-02T05:11:53;5.90;99.90
36322;DHT22;23564;48.290;11.460;2024-03-02T05:14:36;6.00;99.90
36322;DHT22;23564;48.290;11.460;2024-03-02T05:17:02;6.00;99.90
36322;DHT22;23564;48.290;11.460;2024-03-02T05:19:28;6.00;99.80
36322;DHT22;23564;48.290;11.460;2024-03-02T05:21:53;6.10;99.50
36322;DHT22;23564;48.290;11.460;2024-03-02T05:24:19;6.10;99.20
36322;DHT22;23564;48.290;11.460;2024-03-02T05:26:44;6.10;99.30
36322;DHT22;23564;48.290;11.460;2024-03-02T05:29:10;6.10;99.10
36322;DHT22;23564;48.290;11.460;2024-03-02T05:31:35;6.10;98.70
36322;DHT22;23564;48.290;11.460;2024-03-02T05:34:01;6.10;98.30
36322;DHT22;23564;48.290;11.460;2024-03-02T05:36:26;6.10;98.20
36322;DHT22;23564;48.290;11.460;2024-03-02T05:38:52;6.10;97.90
36322;DHT22;23564;48.290;11.460;2024-03-02T05:41:18;6.20;98.00
36322;DHT22;23564;48.290;11.460;2024-03-02T05:43:43;6.10;97.80
36322;DHT22;23564;48.290;11.460;2024-03-02T05:46:09;6.10;98.10
36322;DHT22;23564;48.290;11.460;2024-03-02T05:48:34;6.10;98.00
36322;DHT22;23564;48.290;11.460;2024-03-02T05:51:00;6.10;98.60
36322;DHT22;23564;48.290;11.460;2024-03-02T05:53:25;6.10;98.70
36322;DHT22;23564;48.290;11.460;2024-03-02T05:55:51;6.10;98.30
36322;DHT22;23564;48.290;11.460;2024-03-02T05:58:21;6.10;98.70
36322;DHT22;23564;48.290;11.460;2024-03-02T06:01:06;6.10;98.00
36322;DHT22;23564;48.290;11.460;2024-03-02T06:03:32;6.10;98.40
36322;DHT22;23564;48.290;11.460;2024-03-02T06:05:58;6.10;98.50
36322;DHT22;23564;48.290;11.460;2024-03-02T06:08:23;6.10;98.50
36322;DHT22;23564;48.290;11.460;2024-03-02T06:10:49;6.10;98.50
36322;DHT22;23564;48.290;11.460;2024-03-02T06:13:14;6.10;98.40
36322;DHT22;23564;48.290;11.460;2024-03-02T06:15:40;6.20;98.40
36322;DHT22;23564;48.290;11.460;2024-03-02T06:18:06;6.20;98.20
36322;DHT22;23564;48.290;11.460;2024-03-02T06:20:33;6.20;98.00
36322;DHT22;23564;48.290;11.460;2024-03-02T06:22:58;6.20;97.70
36322;DHT22;23564;48.290;11.460;2024-03-02T06:25:24;6.30;97.70
36322;DHT22;23564;48.290;11.460;2024-03-02T06:27:50;6.30;97.90
36322;DHT22;23564;48.290;11.460;2024-03-02T06:30:15;6.30;97.50
36322;DHT22;23564;48.290;11.460;2024-03-02T06:32:41;6.30;97.00
36322;DHT22;23564;48.290;11.460;2024-03-02T06:35:07;6.30;96.50
36322;DHT22;23564;48.290;11.460;2024-03-02T06:37:36;6.30;96.10
36322;DHT22;23564;48.290;11.460;2024-03-02T06:40:01;6.30;95.70
36322;DHT22;23564;48.290;11.460;2024-03-02T06:42:27;6.30;96.30
36322;DHT22;23564;48.290;11.460;2024-03-02T06:44:58;6.30;96.60
36322;DHT22;23564;48.290;11.460;2024-03-02T06:47:24;6.30;96.40
36322;DHT22;23564;48.290;11.460;2024-03-02T06:49:49;6.40;95.70
36322;DHT22;23564;48.290;11.460;2024-03-02T06:52:15;6.40;95.40
36322;DHT22;23564;48.290;11.460;2024-03-02T06:54:40;6.40;95.10
36322;DHT22;23564;48.290;11.460;2024-03-02T06:57:06;6.40;95.20
36322;DHT22;23564;48.290;11.460;2024-03-02T06:59:31;6.40;95.10
36322;DHT22;23564;48.290;11.460;2024-03-02T07:01:58;6.40;94.70
36322;DHT22;23564;48.290;11.460;2024-03-02T07:04:24;6.40;94.30
36322;DHT22;23564;48.290;11.460;2024-03-02T07:06:50;6.30;94.50
36322;DHT22;23564;48.290;11.460;2024-03-02T07:09:16;6.30;94.10
36322;DHT22;23564;48.290;11.460;2024-03-02T07:11:42;6.30;94.00
36322;DHT22;23564;48.290;11.460;2024-03-02T07:14:07;6.20;93.70
36322;DHT22;23564;48.290;11.460;2024-03-02T07:16:33;6.10;94.30
36322;DHT22;23564;48.290;11.460;2024-03-02T07:19:00;6.00;94.50
36322;DHT22;23564;48.290;11.460;2024-03-02T07:21:27;5.90;95.70
36322;DHT22;23564;48.290;11.460;2024-03-02T07:23:53;5.90;96.80
36322;DHT22;23564;48.290;11.460;2024-03-02T07:26:19;5.90;97.20
36322;DHT22;23564;48.290;11.460;2024-03-02T07:28:46;5.90;97.20
36322;DHT22;23564;48.290;11.460;2024-03-02T07:31:13;5.90;97.10
36322;DHT22;23564;48.290;11.460;2024-03-02T07:33:39;5.90;97.40
36322;DHT22;23564;48.290;11.460;2024-03-02T07:36:05;5.90;97.90
36322;DHT22;23564;48.290;11.460;2024-03-02T07:38:31;5.90;98.30
36322;DHT22;23564;48.290;11.460;2024-03-02T07:40:57;5.90;99.30
36322;DHT22;23564;48.290;11.460;2024-03-02T07:43:23;6.00;99.90
36322;DHT22;23564;48.290;11.460;2024-03-02T07:45:48;6.00;99.90
36322;DHT22;23564;48.290;11.460;2024-03-02T07:48:15;6.10;99.90
36322;DHT22;23564;48.290;11.460;2024-03-02T07:50:41;6.10;99.90
36322;DHT22;23564;48.290;11.460;2024-03-02T07:53:07;6.10;99.90
36322;DHT22;23564;48.290;11.460;2024-03-02T07:55:35;6.20;99.90
36322;DHT22;23564;48.290;11.460;2024-03-02T07:58:01;6.20;99.90
36322;DHT22;23564;48.290;11.460;2024-03-02T08:00:26;6.20;99.90
36322;DHT22;23564;48.290;11.460;2024-03-02T08:02:53;6.30;99.90
36322;DHT22;23564;48.290;11.460;2024-03-02T08:05:19;6.40;99.90
36322;DHT22;23564;48.290;11.460;2024-03-02T08:07:45;6.30;99.80
36322;DHT22;23564;48.290;11.460;2024-03-02T08:10:11;6.40;99.90
36322;DHT22;23564;48.290;11.460;2024-03-02T08:12:37;6.50;99.90
36322;DHT22;23564;48.290;11.460;2024-03-02T08:15:03;6.60;99.90
36322;DHT22;23564;48.290;11.460;2024-03-02T08:17:29;6.80;99.90
36322;DHT22;23564;48.290;11.460;2024-03-02T08:19:55;6.90;99.10
36322;DHT22;23564;48.290;11.460;2024-03-02T08:22:21;7.00;98.20
36322;DHT22;23564;48.290;11.460;2024-03-02T08:24:47;7.20;96.80
36322;DHT22;23564;48.290;11.460;2024-03-02T08:27:12;7.20;93.90
36322;DHT22;23564;48.290;11.460;2024-03-02T08:29:38;7.20;91.80
36322;DHT22;23564;48.290;11.460;2024-03-02T08:32:05;7.40;92.80
36322;DHT22;23564;48.290;11.460;2024-03-02T08:34:31;7.60;93.80
36322;DHT22;23564;48.290;11.460;2024-03-02T08:36:57;7.70;92.70
36322;DHT22;23564;48.290;11.460;2024-03-02T08:39:22;7.90;90.60
36322;DHT22;23564;48.290;11.460;2024-03-02T08:41:48;8.00;91.70
36322;DHT22;23564;48.290;11.460;2024-03-02T08:44:14;8.20;84.60
36322;DHT22;23564;48.290;11.460;2024-03-02T08:46:40;8.30;72.70
36322;DHT22;23564;48.290;11.460;2024-03-02T08:49:06;8.40;67.10
36322;DHT22;23564;48.290;11.460;2024-03-02T08:51:32;8.50;58.50
36322;DHT22;23564;48.290;11.460;2024-03-02T08:53:57;8.60;61.40
36322;DHT22;23564;48.290;11.460;2024-03-02T08:56:24;8.70;47.80
36322;DHT22;23564;48.290;11.460;2024-03-02T08:58:50;8.70;37.80
36322;DHT22;23564;48.290;11.460;2024-03-02T09:01:17;8.60;35.20
36322;DHT22;23564;48.290;11.460;2024-03-02T09:03:42;8.70;42.10
36322;DHT22;23564;48.290;11.460;2024-03-02T09:06:12;8.70;41.90
36322;DHT22;23564;48.290;11.460;2024-03-02T09:08:38;8.80;43.00
36322;DHT22;23564;48.290;11.460;2024-03-02T09:11:04;8.80;34.90
36322;DHT22;23564;48.290;11.460;2024-03-02T09:13:31;8.80;34.30
36322;DHT22;23564;48.290;11.460;2024-03-02T09:15:56;8.70;35.20
36322;DHT22;23564;48.290;11.460;2024-03-02T09:18:22;8.80;31.70
36322;DHT22;23564;48.290;11.460;2024-03-02T09:20:48;8.80;27.30
36322;DHT22;23564;48.290;11.460;2024-03-02T09:23:13;8.80;30.90
36322;DHT22;23564;48.290;11.460;2024-03-02T09:25:39;8.80;24.00
36322;DHT22;23564;48.290;11.460;2024-03-02T09:28:05;8.80;23.50
36322;DHT22;23564;48.290;11.460;2024-03-02T09:30:30;8.80;35.90
36322;DHT22;23564;48.290;11.460;2024-03-02T09:32:56;9.00;28.80
36322;DHT22;23564;48.290;11.460;2024-03-02T09:35:21;9.10;25.10
36322;DHT22;23564;48.290;11.460;2024-03-02T09:37:47;9.20;26.40
36322;DHT22;23564;48.290;11.460;2024-03-02T09:40:13;9.20;17.80
36322;DHT22;23564;48.290;11.460;2024-03-02T09:42:40;9.10;13.40
36322;DHT22;23564;48.290;11.460;2024-03-02T09:45:06;9.10;16.60
36322;DHT22;23564;48.290;11.460;2024-03-02T09:47:32;9.10;21.30
36322;DHT22;23564;48.290;11.460;2024-03-02T09:49:58;9.20;18.40
36322;DHT22;23564;48.290;11.460;2024-03-02T09:52:24;9.10;18.00
36322;DHT22;23564;48.290;11.460;2024-03-02T09:54:50;9.20;21.90
36322;DHT22;23564;48.290;11.460;2024-03-02T09:57:16;9.20;22.10
36322;DHT22;23564;48.290;11.460;2024-03-02T09:59:42;9.20;22.20
36322;DHT22;23564;48.290;11.460;2024-03-02T10:02:07;9.40;17.50
36322;DHT22;23564;48.290;11.460;2024-03-02T10:04:33;9.70;26.00
36322;DHT22;23564;48.290;11.460;2024-03-02T10:09:39;9.90;1.00
36322;DHT22;23564;48.290;11.460;2024-03-02T10:12:07;9.90;1.00
36322;DHT22;23564;48.290;11.460;2024-03-02T10:14:33;9.80;1.00
36322;DHT22;23564;48.290;11.460;2024-03-02T10:17:06;9.90;1.00
36322;DHT22;23564;48.290;11.460;2024-03-02T10:19:33;9.90;1.00
36322;DHT22;23564;48.290;11.460;2024-03-02T10:22:00;10.00;1.00
36322;DHT22;23564;48.290;11.460;2024-03-02T10:24:26;10.20;1.00
36322;DHT22;23564;48.290;11.460;2024-03-02T10:26:53;10.20;1.00
36322;DHT22;23564;48.290;11.460;2024-03-02T10:29:19;10.10;1.00
36322;DHT22;23564;48.290;11.460;2024-03-02T10:31:45;10.10;1.00
36322;DHT22;23564;48.290;11.460;2024-03-02T10:34:12;10.10;1.00
36322;DHT22;23564;48.290;11.460;2024-03-02T10:36:41;10.10;1.00
36322;DHT22;23564;48.290;11.460;2024-03-02T10:39:07;10.20;1.00
36322;DHT22;23564;48.290;11.460;2024-03-02T10:41:37;10.20;1.00
36322;DHT22;23564;48.290;11.460;2024-03-02T10:44:04;10.30;1.00
36322;DHT22;23564;48.290;11.460;2024-03-02T10:46:31;10.30;1.00
36322;DHT22;23564;48.290;11.460;2024-03-02T10:48:58;10.30;1.00
36322;DHT22;23564;48.290;11.460;2024-03-02T10:51:28;10.30;1.00
36322;DHT22;23564;48.290;11.460;2024-03-02T10:53:57;10.40;1.00
36322;DHT22;23564;48.290;11.460;2024-03-02T10:56:43;10.40;99.90
36322;DHT22;23564;48.290;11.460;2024-03-02T11:01:48;10.40;99.90
36322;DHT22;23564;48.290;11.460;2024-03-02T11:04:18;10.40;99.90
36322;DHT22;23564;48.290;11.460;2024-03-02T11:06:48;10.40;99.90
36322;DHT22;23564;48.290;11.460;2024-03-02T11:09:14;10.40;99.90
36322;DHT22;23564;48.290;11.460;2024-03-02T11:11:43;10.40;99.90
36322;DHT22;23564;48.290;11.460;2024-03-02T11:14:13;10.40;1.00
36322;DHT22;23564;48.290;11.460;2024-03-02T11:16:39;10.40;99.90
36322;DHT22;23564;48.290;11.460;2024-03-02T11:19:10;10.40;99.90
36322;DHT22;23564;48.290;11.460;2024-03-02T11:21:36;10.40;99.90
36322;DHT22;23564;48.290;11.460;2024-03-02T11:24:28;10.40;99.90
36322;DHT22;23564;48.290;11.460;2024-03-02T11:26:59;10.40;99.90
36322;DHT22;23564;48.290;11.460;2024-03-02T11:32:20;10.40;1.00
36322;DHT22;23564;48.290;11.460;2024-03-02T11:34:48;10.40;1.00
36322;DHT22;23564;48.290;11.460;2024-03-02T11:37:16;10.40;99.90
36322;DHT22;23564;48.290;11.460;2024-03-02T11:39:45;10.30;99.90
36322;DHT22;23564;48.290;11.460;2024-03-02T11:42:12;10.30;1.00
36322;DHT22;23564;48.290;11.460;2024-03-02T11:44:48;10.30;1.00
36322;DHT22;23564;48.290;11.460;2024-03-02T11:47:15;10.20;99.90
36322;DHT22;23564;48.290;11.460;2024-03-02T11:49:49;10.30;99.90
36322;DHT22;23564;48.290;11.460;2024-03-02T11:52:16;10.30;99.90
36322;DHT22;23564;48.290;11.460;2024-03-02T11:54:44;10.20;99.90
36322;DHT22;23564;48.290;11.460;2024-03-02T11:57:23;10.20;99.90
36322;DHT22;23564;48.290;11.460;2024-03-02T11:59:49;10.20;99.90
36322;DHT22;23564;48.290;11.460;2024-03-02T12:02:19;10.30;99.90
36322;DHT22;23564;48.290;11.460;2024-03-02T12:04:47;10.30;99.90
36322;DHT22;23564;48.290;11.460;2024-03-02T12:07:20;10.30;99.90
36322;DHT22;23564;48.290;11.460;2024-03-02T12:09:47;10.30;99.90
36322;DHT22;23564;48.290;11.460;2024-03-02T12:12:12;10.40;99.90
36322;DHT22;23564;48.290;11.460;2024-03-02T12:14:50;10.40;99.90
36322;DHT22;23564;48.290;11.460;2024-03-02T12:17:16;10.50;99.90
36322;DHT22;23564;48.290;11.460;2024-03-02T12:19:41;10.40;99.90
36322;DHT22;23564;48.290;11.460;2024-03-02T12:22:07;10.50;99.90
36322;DHT22;23564;48.290;11.460;2024-03-02T12:24:32;10.40;99.90
36322;DHT22;23564;48.290;11.460;2024-03-02T12:26:58;10.40;99.90
36322;DHT22;23564;48.290;11.460;2024-03-02T12:29:24;10.40;99.90
36322;DHT22;23564;48.290;11.460;2024-03-02T12:31:51;10.40;99.90
36322;DHT22;23564;48.290;11.460;2024-03-02T12:34:18;10.40;99.90
36322;DHT22;23564;48.290;11.460;2024-03-02T12:36:45;10.40;1.00
36322;DHT22;23564;48.290;11.460;2024-03-02T12:39:13;10.40;99.90
36322;DHT22;23564;48.290;11.460;2024-03-02T12:41:39;10.50;99.90
36322;DHT22;23564;48.290;11.460;2024-03-02T12:44:05;10.50;99.90
36322;DHT22;23564;48.290;11.460;2024-03-02T12:46:34;10.60;99.90
36322;DHT22;23564;48.290;11.460;2024-03-02T12:49:11;10.60;99.90
36322;DHT22;23564;48.290;11.460;2024-03-02T12:51:37;10.60;99.90
36322;DHT22;23564;48.290;11.460;2024-03-02T12:54:06;10.60;99.90
36322;DHT22;23564;48.290;11.460;2024-03-02T12:56:32;10.60;99.90
36322;DHT22;23564;48.290;11.460;2024-03-02T12:58:58;10.60;99.90
36322;DHT22;23564;48.290;11.460;2024-03-02T13:01:25;10.60;99.90
36322;DHT22;23564;48.290;11.460;2024-03-02T13:03:52;10.60;99.90
36322;DHT22;23564;48.290;11.460;2024-03-02T13:06:19;10.60;99.90
36322;DHT22;23564;48.290;11.460;2024-03-02T13:08:45;10.60;99.90
36322;DHT22;23564;48.290;11.460;2024-03-02T13:11:11;10.70;99.90
36322;DHT22;23564;48.290;11.460;2024-03-02T13:13:37;10.70;99.90
36322;DHT22;23564;48.290;11.460;2024-03-02T13:16:08;10.70;99.90
36322;DHT22;23564;48.290;11.460;2024-03-02T13:18:33;10.80;99.90
36322;DHT22;23564;48.290;11.460;2024-03-02T13:20:59;10.80;99.90
36322;DHT22;23564;48.290;11.460;2024-03-02T13:23:24;10.80;99.90
36322;DHT22;23564;48.290;11.460;2024-03-02T13:25:50;10.90;99.90
36322;DHT22;23564;48.290;11.460;2024-03-02T13:28:16;10.90;99.90
36322;DHT22;23564;48.290;11.460;2024-03-02T13:30:42;10.90;99.90
36322;DHT22;23564;48.290;11.460;2024-03-02T13:33:07;10.90;99.90
36322;DHT22;23564;48.290;11.460;2024-03-02T13:35:33;10.90;99.90
36322;DHT22;23564;48.290;11.460;2024-03-02T13:37:58;10.80;99.90
36322;DHT22;23564;48.290;11.460;2024-03-02T13:40:24;10.80;99.90
36322;DHT22;23564;48.290;11.460;2024-03-02T13:42:50;10.80;99.90
36322;DHT22;23564;48.290;11.460;2024-03-02T13:45:17;10.90;99.90
36322;DHT22;23564;48.290;11.460;2024-03-02T13:47:43;10.90;87.50
36322;DHT22;23564;48.290;11.460;2024-03-02T13:50:09;10.90;1.00
36322;DHT22;23564;48.290;11.460;2024-03-02T13:52:35;10.90;1.00
36322;DHT22;23564;48.290;11.460;2024-03-02T13:55:00;10.90;1.00
36322;DHT22;23564;48.290;11.460;2024-03-02T13:57:26;10.90;1.00
36322;DHT22;23564;48.290;11.460;2024-03-02T13:59:52;10.90;3.20
36322;DHT22;23564;48.290;11.460;2024-03-02T14:02:17;10.90;22.80
36322;DHT22;23564;48.290;11.460;2024-03-02T14:04:43;11.00;1.00
36322;DHT22;23564;48.290;11.460;2024-03-02T14:07:09;11.00;1.00
36322;DHT22;23564;48.290;11.460;2024-03-02T14:09:38;11.00;1.00
36322;DHT22;23564;48.290;11.460;2024-03-02T14:12:04;11.00;88.50
36322;DHT22;23564;48.290;11.460;2024-03-02T14:14:31;11.00;99.90
36322;DHT22;23564;48.290;11.460;2024-03-02T14:16:59;11.00;99.90
36322;DHT22;23564;48.290;11.460;2024-03-02T14:19:28;11.10;25.90
36322;DHT22;23564;48.290;11.460;2024-03-02T14:21:54;11.10;80.70
36322;DHT22;23564;48.290;11.460;2024-03-02T14:24:19;11.10;75.80
36322;DHT22;23564;48.290;11.460;2024-03-02T14:26:49;11.10;96.90
36322;DHT22;23564;48.290;11.460;2024-03-02T14:29:14;11.10;43.40
36322;DHT22;23564;48.290;11.460;2024-03-02T14:31:40;11.10;6.20
36322;DHT22;23564;48.290;11.460;2024-03-02T14:34:05;11.10;1.00
36322;DHT22;23564;48.290;11.460;2024-03-02T14:36:31;11.10;67.60
36322;DHT22;23564;48.290;11.460;2024-03-02T14:38:56;11.00;99.90
36322;DHT22;23564;48.290;11.460;2024-03-02T14:41:22;11.00;99.90
36322;DHT22;23564;48.290;11.460;2024-03-02T14:43:51;11.00;99.90
36322;DHT22;23564;48.290;11.460;2024-03-02T14:46:17;11.00;99.90
36322;DHT22;23564;48.290;11.460;2024-03-02T14:48:43;11.00;99.90
36322;DHT22;23564;48.290;11.460;2024-03-02T14:51:10;11.00;99.30
36322;DHT22;23564;48.290;11.460;2024-03-02T14:53:36;11.00;99.90
36322;DHT22;23564;48.290;11.460;2024-03-02T14:56:03;10.90;99.90
36322;DHT22;23564;48.290;11.460;2024-03-02T14:58:29;11.00;99.90
36322;DHT22;23564;48.290;11.460;2024-03-02T15:00:55;10.90;99.90
36322;DHT22;23564;48.290;11.460;2024-03-02T15:03:20;11.00;99.90
36322;DHT22;23564;48.290;11.460;2024-03-02T15:05:46;10.90;99.90
36322;DHT22;23564;48.290;11.460;2024-03-02T15:08:12;10.90;99.90
36322;DHT22;23564;48.290;11.460;2024-03-02T15:10:38;10.90;99.90
36322;DHT22;23564;48.290;11.460;2024-03-02T15:13:04;10.90;99.90
36322;DHT22;23564;48.290;11.460;2024-03-02T15:15:29;10.90;99.90
36322;DHT22;23564;48.290;11.460;2024-03-02T15:17:55;10.90;99.90
36322;DHT22;23564;48.290;11.460;2024-03-02T15:20:20;10.90;99.90
36322;DHT22;23564;48.290;11.460;2024-03-02T15:22:47;10.80;99.90
36322;DHT22;23564;48.290;11.460;2024-03-02T15:25:12;10.90;99.90
36322;DHT22;23564;48.290;11.460;2024-03-02T15:27:38;10.90;99.90
36322;DHT22;23564;48.290;11.460;2024-03-02T15:30:05;10.90;99.90
36322;DHT22;23564;48.290;11.460;2024-03-02T15:32:31;10.80;99.90
36322;DHT22;23564;48.290;11.460;2024-03-02T15:34:59;10.80;99.90